sensor_id;sensor_type;location;lat;lon;timestamp;temperature;humidity
52103;DHT22;38101;53.126;6.878;2023-08-01T00:01:15;17.20;99.90
52103;DHT22;38101;53.126;6.878;2023-08-01T00:03:41;17.20;99.90
52103;DHT22;38101;53.126;6.878;2023-08-01T00:06:07;17.20;99.90
52103;DHT22;38101;53.126;6.878;2023-08-01T00:08:34;17.10;99.90
52103;DHT22;38101;53.126;6.878;2023-08-01T00:11:13;17.10;99.90
52103;DHT22;38101;53.126;6.878;2023-08-01T00:13:45;17.10;99.90
52103;DHT22;38101;53.126;6.878;2023-08-01T00:16:14;17.00;99.90
52103;DHT22;38101;53.126;6.878;2023-08-01T00:18:43;17.00;99.90
52103;DHT22;38101;53.126;6.878;2023-08-01T00:21:28;17.00;99.90
52103;DHT22;38101;53.126;6.878;2023-08-01T00:23:56;17.00;99.90
52103;DHT22;38101;53.126;6.878;2023-08-01T00:26:25;17.00;99.90
52103;DHT22;38101;53.126;6.878;2023-08-01T00:28:52;17.00;99.90
52103;DHT22;38101;53.126;6.878;2023-08-01T00:31:18;17.00;99.90
52103;DHT22;38101;53.126;6.878;2023-08-01T00:33:44;17.00;99.90
52103;DHT22;38101;53.126;6.878;2023-08-01T00:36:09;17.00;99.90
52103;DHT22;38101;53.126;6.878;2023-08-01T00:38:36;17.00;99.90
52103;DHT22;38101;53.126;6.878;2023-08-01T00:41:03;16.90;99.90
52103;DHT22;38101;53.126;6.878;2023-08-01T00:43:28;17.00;99.90
52103;DHT22;38101;53.126;6.878;2023-08-01T00:45:58;17.00;99.90
52103;DHT22;38101;53.126;6.878;2023-08-01T00:48:25;17.00;99.90
52103;DHT22;38101;53.126;6.878;2023-08-01T00:50:54;17.00;99.90
52103;DHT22;38101;53.126;6.878;2023-08-01T00:53:22;16.90;99.90
52103;DHT22;38101;53.126;6.878;2023-08-01T00:55:48;16.90;99.90
52103;DHT22;38101;53.126;6.878;2023-08-01T00:58:15;16.80;99.90
52103;DHT22;38101;53.126;6.878;2023-08-01T01:00:41;16.80;99.90
52103;DHT22;38101;53.126;6.878;2023-08-01T01:03:07;16.70;99.90
52103;DHT22;38101;53.126;6.878;2023-08-01T01:05:36;16.70;99.90
52103;DHT22;38101;53.126;6.878;2023-08-01T01:08:04;16.70;99.90
52103;DHT22;38101;53.126;6.878;2023-08-01T01:10:32;16.60;99.90
52103;DHT22;38101;53.126;6.878;2023-08-01T01:12:59;16.60;99.90
52103;DHT22;38101;53.126;6.878;2023-08-01T01:15:25;16.60;99.90
52103;DHT22;38101;53.126;6.878;2023-08-01T01:17:51;16.60;99.90
52103;DHT22;38101;53.126;6.878;2023-08-01T01:20:23;16.60;99.90
52103;DHT22;38101;53.126;6.878;2023-08-01T01:22:52;16.60;99.90
52103;DHT22;38101;53.126;6.878;2023-08-01T01:25:20;16.50;99.90
52103;DHT22;38101;53.126;6.878;2023-08-01T01:27:51;16.50;99.90
52103;DHT22;38101;53.126;6.878;2023-08-01T01:30:18;16.50;99.90
52103;DHT22;38101;53.126;6.878;2023-08-01T01:32:45;16.40;99.90
52103;DHT22;38101;53.126;6.878;2023-08-01T01:35:13;16.40;99.90
52103;DHT22;38101;53.126;6.878;2023-08-01T01:37:42;16.40;99.90
52103;DHT22;38101;53.126;6.878;2023-08-01T01:40:08;16.40;99.90
52103;DHT22;38101;53.126;6.878;2023-08-01T01:42:34;16.40;99.90
52103;DHT22;38101;53.126;6.878;2023-08-01T01:45:00;16.40;99.90
52103;DHT22;38101;53.126;6.878;2023-08-01T01:47:26;16.30;99.90
52103;DHT22;38101;53.126;6.878;2023-08-01T01:49:52;16.30;99.90
52103;DHT22;38101;53.126;6.878;2023-08-01T01:52:17;16.30;99.90
52103;DHT22;38101;53.126;6.878;2023-08-01T01:54:46;16.30;99.90
52103;DHT22;38101;53.126;6.878;2023-08-01T01:57:12;16.30;99.90
52103;DHT22;38101;53.126;6.878;2023-08-01T01:59:38;16.30;99.90
52103;DHT22;38101;53.126;6.878;2023-08-01T02:02:07;16.30;99.90
52103;DHT22;38101;53.126;6.878;2023-08-01T02:04:32;16.30;99.90
52103;DHT22;38101;53.126;6.878;2023-08-01T02:06:58;16.30;99.90
52103;DHT22;38101;53.126;6.878;2023-08-01T02:09:27;16.20;99.90
52103;DHT22;38101;53.126;6.878;2023-08-01T02:11:53;16.20;99.90
52103;DHT22;38101;53.126;6.878;2023-08-01T02:14:19;16.20;99.90
52103;DHT22;38101;53.126;6.878;2023-08-01T02:16:46;16.20;99.90
52103;DHT22;38101;53.126;6.878;2023-08-01T02:19:12;16.20;99.90
52103;DHT22;38101;53.126;6.878;2023-08-01T02:21:37;16.20;99.90
52103;DHT22;38101;53.126;6.878;2023-08-01T02:24:03;16.10;99.90
52103;DHT22;38101;53.126;6.878;2023-08-01T02:26:30;16.10;99.90
52103;DHT22;38101;53.126;6.878;2023-08-01T02:28:56;16.10;99.90
52103;DHT22;38101;53.126;6.878;2023-08-01T02:31:22;16.00;99.90
52103;DHT22;38101;53.126;6.878;2023-08-01T02:33:47;16.00;99.90
52103;DHT22;38101;53.126;6.878;2023-08-01T02:36:13;16.00;99.90
52103;DHT22;38101;53.126;6.878;2023-08-01T02:38:39;16.00;99.90
52103;DHT22;38101;53.126;6.878;2023-08-01T02:41:05;15.90;99.90
52103;DHT22;38101;53.126;6.878;2023-08-01T02:43:34;15.90;99.90
52103;DHT22;38101;53.126;6.878;2023-08-01T02:46:02;15.90;99.90
52103;DHT22;38101;53.126;6.878;2023-08-01T02:48:28;15.90;99.90
52103;DHT22;38101;53.126;6.878;2023-08-01T02:50:54;15.90;99.90
52103;DHT22;38101;53.126;6.878;2023-08-01T02:53:20;15.90;99.90
52103;DHT22;38101;53.126;6.878;2023-08-01T02:55:46;15.90;99.90
52103;DHT22;38101;53.126;6.878;2023-08-01T02:58:12;15.80;99.90
52103;DHT22;38101;53.126;6.878;2023-08-01T03:00:38;15.80;99.90
52103;DHT22;38101;53.126;6.878;2023-08-01T03:03:06;15.80;99.90
52103;DHT22;38101;53.126;6.878;2023-08-01T03:05:32;15.80;99.90
52103;DHT22;38101;53.126;6.878;2023-08-01T03:08:01;15.80;99.90
52103;DHT22;38101;53.126;6.878;2023-08-01T03:10:27;15.80;99.90
52103;DHT22;38101;53.126;6.878;2023-08-01T03:12:52;15.80;99.90
52103;DHT22;38101;53.126;6.878;2023-08-01T03:15:18;15.80;99.90
52103;DHT22;38101;53.126;6.878;2023-08-01T03:17:44;15.80;99.90
52103;DHT22;38101;53.126;6.878;2023-08-01T03:20:10;15.80;99.90
52103;DHT22;38101;53.126;6.878;2023-08-01T03:22:38;15.80;99.90
52103;DHT22;38101;53.126;6.878;2023-08-01T03:25:08;15.80;99.90
52103;DHT22;38101;53.126;6.878;2023-08-01T03:27:34;15.80;99.90
52103;DHT22;38101;53.126;6.878;2023-08-01T03:30:00;15.80;99.90
52103;DHT22;38101;53.126;6.878;2023-08-01T03:32:26;15.80;99.90
52103;DHT22;38101;53.126;6.878;2023-08-01T03:34:52;15.80;99.90
52103;DHT22;38101;53.126;6.878;2023-08-01T03:37:18;15.80;99.90
52103;DHT22;38101;53.126;6.878;2023-08-01T03:39:47;15.80;99.90
52103;DHT22;38101;53.126;6.878;2023-08-01T03:42:13;15.90;99.90
52103;DHT22;38101;53.126;6.878;2023-08-01T03:44:39;15.90;99.90
52103;DHT22;38101;53.126;6.878;2023-08-01T03:47:05;15.90;99.90
52103;DHT22;38101;53.126;6.878;2023-08-01T03:49:32;15.90;99.90
52103;DHT22;38101;53.126;6.878;2023-08-01T03:51:58;16.00;99.90
52103;DHT22;38101;53.126;6.878;2023-08-01T03:54:24;15.90;99.90
52103;DHT22;38101;53.126;6.878;2023-08-01T03:56:50;16.00;99.90
52103;DHT22;38101;53.126;6.878;2023-08-01T03:59:17;16.00;99.90
52103;DHT22;38101;53.126;6.878;2023-08-01T04:01:47;16.00;99.90
52103;DHT22;38101;53.126;6.878;2023-08-01T04:04:13;16.00;99.90
52103;DHT22;38101;53.126;6.878;2023-08-01T04:06:39;16.00;99.90
52103;DHT22;38101;53.126;6.878;2023-08-01T04:09:05;16.00;99.90
52103;DHT22;38101;53.126;6.878;2023-08-01T04:11:32;16.00;99.90
52103;DHT22;38101;53.126;6.878;2023-08-01T04:13:57;15.90;99.90
52103;DHT22;38101;53.126;6.878;2023-08-01T04:16:23;15.90;99.90
52103;DHT22;38101;53.126;6.878;2023-08-01T04:18:49;15.90;99.90
52103;DHT22;38101;53.126;6.878;2023-08-01T04:21:15;15.90;99.90
52103;DHT22;38101;53.126;6.878;2023-08-01T04:23:41;15.90;99.90
52103;DHT22;38101;53.126;6.878;2023-08-01T04:26:07;15.90;99.90
52103;DHT22;38101;53.126;6.878;2023-08-01T04:28:33;15.80;99.90
52103;DHT22;38101;53.126;6.878;2023-08-01T04:31:00;15.80;99.90
52103;DHT22;38101;53.126;6.878;2023-08-01T04:33:26;15.80;99.90
52103;DHT22;38101;53.126;6.878;2023-08-01T04:35:52;15.80;99.90
52103;DHT22;38101;53.126;6.878;2023-08-01T04:38:18;15.70;99.90
52103;DHT22;38101;53.126;6.878;2023-08-01T04:40:43;15.70;99.90
52103;DHT22;38101;53.126;6.878;2023-08-01T04:43:10;15.70;99.90
52103;DHT22;38101;53.126;6.878;2023-08-01T04:45:38;15.70;99.90
52103;DHT22;38101;53.126;6.878;2023-08-01T04:48:10;15.70;99.90
52103;DHT22;38101;53.126;6.878;2023-08-01T04:50:36;15.70;99.90
52103;DHT22;38101;53.126;6.878;2023-08-01T04:53:02;15.70;99.90
52103;DHT22;38101;53.126;6.878;2023-08-01T04:55:28;15.70;99.90
52103;DHT22;38101;53.126;6.878;2023-08-01T04:57:54;15.80;99.90
52103;DHT22;38101;53.126;6.878;2023-08-01T05:00:19;15.80;99.90
52103;DHT22;38101;53.126;6.878;2023-08-01T05:02:45;15.80;99.90
52103;DHT22;38101;53.126;6.878;2023-08-01T05:05:11;15.70;99.90
52103;DHT22;38101;53.126;6.878;2023-08-01T05:07:38;15.70;99.90
52103;DHT22;38101;53.126;6.878;2023-08-01T05:10:07;15.70;99.90
52103;DHT22;38101;53.126;6.878;2023-08-01T05:12:34;15.70;99.90
52103;DHT22;38101;53.126;6.878;2023-08-01T05:15:01;15.70;99.90
52103;DHT22;38101;53.126;6.878;2023-08-01T05:17:28;15.70;99.90
52103;DHT22;38101;53.126;6.878;2023-08-01T05:19:54;15.70;99.90
52103;DHT22;38101;53.126;6.878;2023-08-01T05:22:21;15.70;99.90
52103;DHT22;38101;53.126;6.878;2023-08-01T05:24:46;15.70;99.90
52103;DHT22;38101;53.126;6.878;2023-08-01T05:27:13;15.70;99.90
52103;DHT22;38101;53.126;6.878;2023-08-01T05:29:39;15.70;99.90
52103;DHT22;38101;53.126;6.878;2023-08-01T05:32:08;15.80;99.90
52103;DHT22;38101;53.126;6.878;2023-08-01T05:34:34;15.80;99.90
52103;DHT22;38101;53.126;6.878;2023-08-01T05:36:59;15.90;99.90
52103;DHT22;38101;53.126;6.878;2023-08-01T05:39:25;15.90;99.90
52103;DHT22;38101;53.126;6.878;2023-08-01T05:41:55;16.00;99.90
52103;DHT22;38101;53.126;6.878;2023-08-01T05:44:22;16.00;99.90
52103;DHT22;38101;53.126;6.878;2023-08-01T05:46:48;16.00;99.90
52103;DHT22;38101;53.126;6.878;2023-08-01T05:49:14;16.10;99.90
52103;DHT22;38101;53.126;6.878;2023-08-01T05:51:41;16.10;99.90
52103;DHT22;38101;53.126;6.878;2023-08-01T05:54:09;16.10;99.90
52103;DHT22;38101;53.126;6.878;2023-08-01T05:56:38;16.10;99.90
52103;DHT22;38101;53.126;6.878;2023-08-01T05:59:04;16.10;99.90
52103;DHT22;38101;53.126;6.878;2023-08-01T06:01:34;16.10;99.90
52103;DHT22;38101;53.126;6.878;2023-08-01T06:04:00;16.20;99.90
52103;DHT22;38101;53.126;6.878;2023-08-01T06:06:25;16.20;99.90
52103;DHT22;38101;53.126;6.878;2023-08-01T06:08:51;16.20;99.90
52103;DHT22;38101;53.126;6.878;2023-08-01T06:11:17;16.30;99.90
52103;DHT22;38101;53.126;6.878;2023-08-01T06:13:47;16.30;99.90
52103;DHT22;38101;53.126;6.878;2023-08-01T06:16:16;16.30;99.90
52103;DHT22;38101;53.126;6.878;2023-08-01T06:19:01;16.30;99.90
52103;DHT22;38101;53.126;6.878;2023-08-01T06:21:30;16.30;99.90
52103;DHT22;38101;53.126;6.878;2023-08-01T06:23:56;16.30;99.90
52103;DHT22;38101;53.126;6.878;2023-08-01T06:26:27;16.40;99.90
52103;DHT22;38101;53.126;6.878;2023-08-01T06:28:53;16.40;99.90
52103;DHT22;38101;53.126;6.878;2023-08-01T06:31:22;16.50;99.90
52103;DHT22;38101;53.126;6.878;2023-08-01T06:33:48;16.50;99.90
52103;DHT22;38101;53.126;6.878;2023-08-01T06:36:27;16.50;99.90
52103;DHT22;38101;53.126;6.878;2023-08-01T06:39:00;16.50;99.90
52103;DHT22;38101;53.126;6.878;2023-08-01T06:41:36;16.50;99.90
52103;DHT22;38101;53.126;6.878;2023-08-01T06:44:02;16.50;99.90
52103;DHT22;38101;53.126;6.878;2023-08-01T06:46:33;16.50;99.90
52103;DHT22;38101;53.126;6.878;2023-08-01T06:48:59;16.60;99.90
52103;DHT22;38101;53.126;6.878;2023-08-01T06:51:25;16.50;99.90
52103;DHT22;38101;53.126;6.878;2023-08-01T06:53:51;16.60;99.90
52103;DHT22;38101;53.126;6.878;2023-08-01T06:56:17;16.50;99.90
52103;DHT22;38101;53.126;6.878;2023-08-01T06:58:43;16.50;99.90
52103;DHT22;38101;53.126;6.878;2023-08-01T07:01:10;16.50;99.90
52103;DHT22;38101;53.126;6.878;2023-08-01T07:03:36;16.40;99.90
52103;DHT22;38101;53.126;6.878;2023-08-01T07:06:02;16.40;99.90
52103;DHT22;38101;53.126;6.878;2023-08-01T07:08:27;16.40;99.90
52103;DHT22;38101;53.126;6.878;2023-08-01T07:10:58;16.40;99.90
52103;DHT22;38101;53.126;6.878;2023-08-01T07:13:25;16.40;99.90
52103;DHT22;38101;53.126;6.878;2023-08-01T07:15:53;16.50;99.90
52103;DHT22;38101;53.126;6.878;2023-08-01T07:18:20;16.50;99.90
52103;DHT22;38101;53.126;6.878;2023-08-01T07:20:47;16.60;99.90
52103;DHT22;38101;53.126;6.878;2023-08-01T07:23:14;16.60;99.90
52103;DHT22;38101;53.126;6.878;2023-08-01T07:25:41;16.60;99.90
52103;DHT22;38101;53.126;6.878;2023-08-01T07:28:07;16.70;99.90
52103;DHT22;38101;53.126;6.878;2023-08-01T07:30:33;16.70;99.90
52103;DHT22;38101;53.126;6.878;2023-08-01T07:33:00;16.80;99.90
52103;DHT22;38101;53.126;6.878;2023-08-01T07:35:35;16.80;99.90
52103;DHT22;38101;53.126;6.878;2023-08-01T07:38:02;16.80;99.90
52103;DHT22;38101;53.126;6.878;2023-08-01T07:40:29;16.80;99.90
52103;DHT22;38101;53.126;6.878;2023-08-01T07:42:56;16.80;99.90
52103;DHT22;38101;53.126;6.878;2023-08-01T07:45:28;16.80;99.90
52103;DHT22;38101;53.126;6.878;2023-08-01T07:47:54;16.80;99.90
52103;DHT22;38101;53.126;6.878;2023-08-01T07:50:19;16.80;99.90
52103;DHT22;38101;53.126;6.878;2023-08-01T07:52:45;16.80;99.90
52103;DHT22;38101;53.126;6.878;2023-08-01T07:55:11;16.80;99.90
52103;DHT22;38101;53.126;6.878;2023-08-01T07:57:37;16.90;99.90
52103;DHT22;38101;53.126;6.878;2023-08-01T08:00:02;16.80;99.90
52103;DHT22;38101;53.126;6.878;2023-08-01T08:02:30;16.80;99.90
52103;DHT22;38101;53.126;6.878;2023-08-01T08:04:56;16.80;99.90
52103;DHT22;38101;53.126;6.878;2023-08-01T08:07:24;16.80;99.90
52103;DHT22;38101;53.126;6.878;2023-08-01T08:09:51;16.80;99.90
52103;DHT22;38101;53.126;6.878;2023-08-01T08:12:17;16.80;99.90
52103;DHT22;38101;53.126;6.878;2023-08-01T08:14:42;16.80;99.90
52103;DHT22;38101;53.126;6.878;2023-08-01T08:17:12;16.80;99.90
52103;DHT22;38101;53.126;6.878;2023-08-01T08:19:39;16.80;99.90
52103;DHT22;38101;53.126;6.878;2023-08-01T08:22:06;16.70;99.90
52103;DHT22;38101;53.126;6.878;2023-08-01T08:24:37;16.70;99.90
52103;DHT22;38101;53.126;6.878;2023-08-01T08:27:04;16.70;99.90
52103;DHT22;38101;53.126;6.878;2023-08-01T08:29:33;16.60;99.90
52103;DHT22;38101;53.126;6.878;2023-08-01T08:31:59;16.50;99.90
52103;DHT22;38101;53.126;6.878;2023-08-01T08:34:24;16.50;99.90
52103;DHT22;38101;53.126;6.878;2023-08-01T08:36:50;16.60;99.90
52103;DHT22;38101;53.126;6.878;2023-08-01T08:39:17;16.70;99.90
52103;DHT22;38101;53.126;6.878;2023-08-01T08:41:51;16.70;99.90
52103;DHT22;38101;53.126;6.878;2023-08-01T08:44:18;16.80;99.90
52103;DHT22;38101;53.126;6.878;2023-08-01T08:46:51;16.80;99.90
52103;DHT22;38101;53.126;6.878;2023-08-01T08:49:19;16.90;99.90
52103;DHT22;38101;53.126;6.878;2023-08-01T08:51:49;16.90;99.90
52103;DHT22;38101;53.126;6.878;2023-08-01T08:54:16;16.90;99.90
52103;DHT22;38101;53.126;6.878;2023-08-01T08:56:47;16.70;99.90
52103;DHT22;38101;53.126;6.878;2023-08-01T08:59:13;16.60;99.90
52103;DHT22;38101;53.126;6.878;2023-08-01T09:01:42;16.60;99.90
52103;DHT22;38101;53.126;6.878;2023-08-01T09:04:10;16.50;99.90
52103;DHT22;38101;53.126;6.878;2023-08-01T09:06:48;16.50;99.90
52103;DHT22;38101;53.126;6.878;2023-08-01T09:09:18;16.60;99.90
52103;DHT22;38101;53.126;6.878;2023-08-01T09:11:51;16.60;99.90
52103;DHT22;38101;53.126;6.878;2023-08-01T09:14:20;16.70;99.90
52103;DHT22;38101;53.126;6.878;2023-08-01T09:16:46;16.80;99.90
52103;DHT22;38101;53.126;6.878;2023-08-01T09:19:17;16.80;99.90
52103;DHT22;38101;53.126;6.878;2023-08-01T09:21:44;16.80;99.90
52103;DHT22;38101;53.126;6.878;2023-08-01T09:24:17;16.90;99.90
52103;DHT22;38101;53.126;6.878;2023-08-01T09:26:45;16.90;99.90
52103;DHT22;38101;53.126;6.878;2023-08-01T09:29:11;16.90;99.90
52103;DHT22;38101;53.126;6.878;2023-08-01T09:31:41;17.00;99.90
52103;DHT22;38101;53.126;6.878;2023-08-01T09:34:21;17.10;99.90
52103;DHT22;38101;53.126;6.878;2023-08-01T09:36:50;17.20;99.90
52103;DHT22;38101;53.126;6.878;2023-08-01T09:39:19;17.30;99.90
52103;DHT22;38101;53.126;6.878;2023-08-01T09:41:46;17.30;99.90
52103;DHT22;38101;53.126;6.878;2023-08-01T09:44:20;17.30;99.90
52103;DHT22;38101;53.126;6.878;2023-08-01T09:46:56;17.30;99.90
52103;DHT22;38101;53.126;6.878;2023-08-01T09:49:23;17.30;99.90
52103;DHT22;38101;53.126;6.878;2023-08-01T09:51:49;17.30;99.90
52103;DHT22;38101;53.126;6.878;2023-08-01T09:54:16;17.40;99.90
52103;DHT22;38101;53.126;6.878;2023-08-01T09:56:47;17.40;99.90
52103;DHT22;38101;53.126;6.878;2023-08-01T09:59:22;17.40;99.90
52103;DHT22;38101;53.126;6.878;2023-08-01T10:01:53;17.50;99.90
52103;DHT22;38101;53.126;6.878;2023-08-01T10:04:25;17.60;99.90
52103;DHT22;38101;53.126;6.878;2023-08-01T10:06:57;17.70;99.90
52103;DHT22;38101;53.126;6.878;2023-08-01T10:09:26;17.70;99.90
52103;DHT22;38101;53.126;6.878;2023-08-01T10:11:52;17.80;99.90
52103;DHT22;38101;53.126;6.878;2023-08-01T10:14:20;17.80;99.90
52103;DHT22;38101;53.126;6.878;2023-08-01T10:16:46;17.70;99.90
52103;DHT22;38101;53.126;6.878;2023-08-01T10:19:13;17.70;99.90
52103;DHT22;38101;53.126;6.878;2023-08-01T10:21:41;17.60;99.90
52103;DHT22;38101;53.126;6.878;2023-08-01T10:24:08;17.60;99.90
52103;DHT22;38101;53.126;6.878;2023-08-01T10:26:35;17.50;99.90
52103;DHT22;38101;53.126;6.878;2023-08-01T10:29:02;17.50;99.90
52103;DHT22;38101;53.126;6.878;2023-08-01T10:31:28;17.40;99.90
52103;DHT22;38101;53.126;6.878;2023-08-01T10:34:04;17.50;99.90
52103;DHT22;38101;53.126;6.878;2023-08-01T10:36:31;17.50;99.90
52103;DHT22;38101;53.126;6.878;2023-08-01T10:39:00;17.40;99.90
52103;DHT22;38101;53.126;6.878;2023-08-01T10:41:29;17.30;99.90
52103;DHT22;38101;53.126;6.878;2023-08-01T10:44:24;17.10;99.90
52103;DHT22;38101;53.126;6.878;2023-08-01T10:46:59;17.10;99.90
52103;DHT22;38101;53.126;6.878;2023-08-01T10:49:38;17.00;99.90
52103;DHT22;38101;53.126;6.878;2023-08-01T10:52:33;17.00;99.90
52103;DHT22;38101;53.126;6.878;2023-08-01T10:54:59;16.90;99.90
52103;DHT22;38101;53.126;6.878;2023-08-01T10:57:28;17.00;99.90
52103;DHT22;38101;53.126;6.878;2023-08-01T10:59:58;17.10;99.90
52103;DHT22;38101;53.126;6.878;2023-08-01T11:02:28;17.10;99.90
52103;DHT22;38101;53.126;6.878;2023-08-01T11:07:29;17.30;99.90
52103;DHT22;38101;53.126;6.878;2023-08-01T11:12:39;17.50;99.90
52103;DHT22;38101;53.126;6.878;2023-08-01T11:15:08;17.80;99.90
52103;DHT22;38101;53.126;6.878;2023-08-01T11:17:43;18.00;99.90
52103;DHT22;38101;53.126;6.878;2023-08-01T11:20:12;18.20;99.90
52103;DHT22;38101;53.126;6.878;2023-08-01T11:22:56;18.30;99.90
52103;DHT22;38101;53.126;6.878;2023-08-01T11:25:37;18.30;99.90
52103;DHT22;38101;53.126;6.878;2023-08-01T11:28:10;18.20;99.90
52103;DHT22;38101;53.126;6.878;2023-08-01T11:30:37;18.20;99.90
52103;DHT22;38101;53.126;6.878;2023-08-01T11:33:23;18.10;99.90
52103;DHT22;38101;53.126;6.878;2023-08-01T11:35:56;18.20;99.90
52103;DHT22;38101;53.126;6.878;2023-08-01T11:38:27;18.50;99.90
52103;DHT22;38101;53.126;6.878;2023-08-01T11:40:56;18.70;99.90
52103;DHT22;38101;53.126;6.878;2023-08-01T11:43:23;19.00;99.90
52103;DHT22;38101;53.126;6.878;2023-08-01T11:45:50;19.30;99.90
52103;DHT22;38101;53.126;6.878;2023-08-01T11:48:16;19.30;99.90
52103;DHT22;38101;53.126;6.878;2023-08-01T11:50:43;19.40;99.90
52103;DHT22;38101;53.126;6.878;2023-08-01T11:53:23;19.40;99.90
52103;DHT22;38101;53.126;6.878;2023-08-01T11:55:50;19.30;99.90
52103;DHT22;38101;53.126;6.878;2023-08-01T11:58:41;19.30;99.90
52103;DHT22;38101;53.126;6.878;2023-08-01T12:01:12;19.40;99.90
52103;DHT22;38101;53.126;6.878;2023-08-01T12:03:54;19.50;99.90
52103;DHT22;38101;53.126;6.878;2023-08-01T12:06:23;19.80;99.90
52103;DHT22;38101;53.126;6.878;2023-08-01T12:08:52;19.80;99.90
52103;DHT22;38101;53.126;6.878;2023-08-01T12:11:24;19.70;99.90
52103;DHT22;38101;53.126;6.878;2023-08-01T12:14:04;19.50;99.90
52103;DHT22;38101;53.126;6.878;2023-08-01T12:16:30;19.50;99.90
52103;DHT22;38101;53.126;6.878;2023-08-01T12:18:57;19.50;99.90
52103;DHT22;38101;53.126;6.878;2023-08-01T12:21:23;19.40;99.90
52103;DHT22;38101;53.126;6.878;2023-08-01T12:23:51;19.50;99.90
52103;DHT22;38101;53.126;6.878;2023-08-01T12:26:20;19.60;99.90
52103;DHT22;38101;53.126;6.878;2023-08-01T12:28:47;19.70;99.90
52103;DHT22;38101;53.126;6.878;2023-08-01T12:31:16;20.00;99.90
52103;DHT22;38101;53.126;6.878;2023-08-01T12:33:49;20.20;99.90
52103;DHT22;38101;53.126;6.878;2023-08-01T12:36:16;20.40;99.90
52103;DHT22;38101;53.126;6.878;2023-08-01T12:38:42;20.50;99.90
52103;DHT22;38101;53.126;6.878;2023-08-01T12:41:08;20.40;99.90
52103;DHT22;38101;53.126;6.878;2023-08-01T12:43:34;20.00;99.90
52103;DHT22;38101;53.126;6.878;2023-08-01T12:46:00;19.80;99.90
52103;DHT22;38101;53.126;6.878;2023-08-01T12:48:27;19.30;99.90
52103;DHT22;38101;53.126;6.878;2023-08-01T12:50:52;19.20;99.90
52103;DHT22;38101;53.126;6.878;2023-08-01T12:53:19;19.20;99.90
52103;DHT22;38101;53.126;6.878;2023-08-01T12:55:46;19.20;99.90
52103;DHT22;38101;53.126;6.878;2023-08-01T12:58:12;19.30;99.90
52103;DHT22;38101;53.126;6.878;2023-08-01T13:00:39;19.20;99.90
52103;DHT22;38101;53.126;6.878;2023-08-01T13:03:05;19.10;99.90
52103;DHT22;38101;53.126;6.878;2023-08-01T13:05:37;19.40;99.90
52103;DHT22;38101;53.126;6.878;2023-08-01T13:08:04;19.50;99.90
52103;DHT22;38101;53.126;6.878;2023-08-01T13:10:31;19.70;99.90
52103;DHT22;38101;53.126;6.878;2023-08-01T13:12:57;19.60;99.90
52103;DHT22;38101;53.126;6.878;2023-08-01T13:15:23;19.50;99.90
52103;DHT22;38101;53.126;6.878;2023-08-01T13:17:49;19.40;99.90
52103;DHT22;38101;53.126;6.878;2023-08-01T13:20:15;19.30;99.90
52103;DHT22;38101;53.126;6.878;2023-08-01T13:22:42;19.30;99.90
52103;DHT22;38101;53.126;6.878;2023-08-01T13:25:08;19.30;99.90
52103;DHT22;38101;53.126;6.878;2023-08-01T13:27:35;19.30;99.90
52103;DHT22;38101;53.126;6.878;2023-08-01T13:30:02;19.30;99.90
52103;DHT22;38101;53.126;6.878;2023-08-01T13:32:28;19.20;99.90
52103;DHT22;38101;53.126;6.878;2023-08-01T13:34:53;19.10;99.90
52103;DHT22;38101;53.126;6.878;2023-08-01T13:37:19;19.10;99.90
52103;DHT22;38101;53.126;6.878;2023-08-01T13:39:45;19.00;99.90
52103;DHT22;38101;53.126;6.878;2023-08-01T13:42:12;18.90;99.90
52103;DHT22;38101;53.126;6.878;2023-08-01T13:44:38;19.00;99.90
52103;DHT22;38101;53.126;6.878;2023-08-01T13:47:04;19.10;99.90
52103;DHT22;38101;53.126;6.878;2023-08-01T13:49:30;19.10;99.90
52103;DHT22;38101;53.126;6.878;2023-08-01T13:51:57;19.10;99.90
52103;DHT22;38101;53.126;6.878;2023-08-01T13:54:23;19.10;99.90
52103;DHT22;38101;53.126;6.878;2023-08-01T13:56:48;19.30;99.90
52103;DHT22;38101;53.126;6.878;2023-08-01T13:59:14;19.60;99.90
52103;DHT22;38101;53.126;6.878;2023-08-01T14:01:40;19.80;99.90
52103;DHT22;38101;53.126;6.878;2023-08-01T14:04:06;19.90;99.90
52103;DHT22;38101;53.126;6.878;2023-08-01T14:06:32;19.90;99.90
52103;DHT22;38101;53.126;6.878;2023-08-01T14:08:57;19.90;99.90
52103;DHT22;38101;53.126;6.878;2023-08-01T14:11:23;20.00;99.90
52103;DHT22;38101;53.126;6.878;2023-08-01T14:13:49;19.80;99.90
52103;DHT22;38101;53.126;6.878;2023-08-01T14:16:15;19.70;99.90
52103;DHT22;38101;53.126;6.878;2023-08-01T14:18:42;19.50;99.90
52103;DHT22;38101;53.126;6.878;2023-08-01T14:21:12;19.40;99.90
52103;DHT22;38101;53.126;6.878;2023-08-01T14:23:39;19.40;99.90
52103;DHT22;38101;53.126;6.878;2023-08-01T14:26:07;19.50;99.90
52103;DHT22;38101;53.126;6.878;2023-08-01T14:28:33;19.40;99.90
52103;DHT22;38101;53.126;6.878;2023-08-01T14:31:03;19.40;99.90
52103;DHT22;38101;53.126;6.878;2023-08-01T14:33:30;19.40;99.90
52103;DHT22;38101;53.126;6.878;2023-08-01T14:35:56;19.50;99.90
52103;DHT22;38101;53.126;6.878;2023-08-01T14:38:22;19.50;99.90
52103;DHT22;38101;53.126;6.878;2023-08-01T14:40:54;19.60;99.90
52103;DHT22;38101;53.126;6.878;2023-08-01T14:43:20;19.50;99.90
52103;DHT22;38101;53.126;6.878;2023-08-01T14:45:46;19.60;99.90
52103;DHT22;38101;53.126;6.878;2023-08-01T14:48:12;19.60;99.90
52103;DHT22;38101;53.126;6.878;2023-08-01T14:50:38;19.60;99.90
52103;DHT22;38101;53.126;6.878;2023-08-01T14:53:04;19.70;99.90
52103;DHT22;38101;53.126;6.878;2023-08-01T14:55:32;19.60;99.90
52103;DHT22;38101;53.126;6.878;2023-08-01T14:58:02;19.40;99.90
52103;DHT22;38101;53.126;6.878;2023-08-01T15:00:35;19.30;99.90
52103;DHT22;38101;53.126;6.878;2023-08-01T15:03:01;19.10;99.90
52103;DHT22;38101;53.126;6.878;2023-08-01T15:05:27;18.90;99.90
52103;DHT22;38101;53.126;6.878;2023-08-01T15:07:55;18.70;99.90
52103;DHT22;38101;53.126;6.878;2023-08-01T15:10:21;18.90;99.90
52103;DHT22;38101;53.126;6.878;2023-08-01T15:12:48;19.00;99.90
52103;DHT22;38101;53.126;6.878;2023-08-01T15:15:17;19.00;99.90
52103;DHT22;38101;53.126;6.878;2023-08-01T15:17:43;18.90;99.90
52103;DHT22;38101;53.126;6.878;2023-08-01T15:20:10;18.90;99.90
52103;DHT22;38101;53.126;6.878;2023-08-01T15:22:36;18.80;99.90
52103;DHT22;38101;53.126;6.878;2023-08-01T15:25:03;18.60;99.90
52103;DHT22;38101;53.126;6.878;2023-08-01T15:27:30;18.60;99.90
52103;DHT22;38101;53.126;6.878;2023-08-01T15:29:56;18.50;99.90
52103;DHT22;38101;53.126;6.878;2023-08-01T15:32:23;18.50;99.90
52103;DHT22;38101;53.126;6.878;2023-08-01T15:34:49;18.50;99.90
52103;DHT22;38101;53.126;6.878;2023-08-01T15:37:15;18.40;99.90
52103;DHT22;38101;53.126;6.878;2023-08-01T15:39:41;18.40;99.90